createdAt,value
2016-09-03T00:04:26.728Z,"    0"
2016-09-03T00:09:23.243Z,"    0"
2016-09-03T00:14:20.238Z,"    0"
2016-09-03T00:19:16.816Z,"    0"
2016-09-03T00:24:13.314Z,"    0"
2016-09-03T00:29:09.918Z,"    0"
2016-09-03T00:34:06.475Z,"    0"
2016-09-03T00:39:03.007Z,"    0"
2016-09-03T00:43:59.746Z,"    0"
2016-09-03T00:48:56.317Z,"    0"
2016-09-03T00:53:52.973Z,"    0"
2016-09-03T00:58:49.576Z,"    0"
2016-09-03T01:03:46.664Z,"    0"
2016-09-03T01:08:44.798Z,"    0"
2016-09-03T01:13:41.202Z,"    0"
2016-09-03T01:18:37.903Z,"    0"
2016-09-03T01:23:34.460Z,"    0"
2016-09-03T01:28:30.975Z,"    0"
2016-09-03T01:33:27.567Z,"    0"
2016-09-03T01:38:24.183Z,"    0"
2016-09-03T01:43:20.799Z,"    0"
2016-09-03T01:48:17.353Z,"    0"
2016-09-03T01:53:13.950Z,"    0"
2016-09-03T01:58:10.758Z,"    0"
2016-09-03T02:03:07.849Z,"    0"
2016-09-03T02:08:05.056Z,"    0"
2016-09-03T02:13:01.392Z,"    0"
2016-09-03T02:17:57.943Z,"    0"
2016-09-03T02:22:56.780Z,"    0"
2016-09-03T02:27:52.817Z,"    0"
2016-09-03T02:32:49.295Z,"    0"
2016-09-03T02:37:46.001Z,"    0"
2016-09-03T02:42:42.628Z,"    0"
2016-09-03T02:47:39.106Z,"    0"
2016-09-03T02:52:38.572Z,"    0"
2016-09-03T02:57:34.588Z,"    0"
2016-09-03T03:02:31.243Z,"    0"
2016-09-03T03:07:27.837Z,"    0"
2016-09-03T03:12:24.617Z,"    0"
2016-09-03T03:17:21.090Z,"    0"
2016-09-03T03:22:18.148Z,"    0"
2016-09-03T03:27:14.712Z,"    0"
2016-09-03T03:32:11.370Z,"    0"
2016-09-03T03:37:08.235Z,"    0"
2016-09-03T03:42:04.881Z,"    0"
2016-09-03T03:47:01.351Z,"    0"
2016-09-03T03:51:58.277Z,"    0"
2016-09-03T03:56:54.977Z,"    0"
2016-09-03T04:01:51.357Z,"    0"
2016-09-03T04:06:48.225Z,"    0"
2016-09-03T04:11:44.592Z,"    0"
2016-09-03T04:16:41.142Z,"    0"
2016-09-03T04:21:37.862Z,"    0"
2016-09-03T04:26:34.315Z,"    0"
2016-09-03T04:31:30.730Z,"    0"
2016-09-03T04:36:27.388Z,"    0"
2016-09-03T04:41:24.019Z,"    0"
2016-09-03T04:46:20.877Z,"    0"
2016-09-03T04:51:17.526Z,"    0"
2016-09-03T04:56:13.922Z,"    0"
2016-09-03T05:01:10.452Z,"    0"
2016-09-03T05:06:07.299Z,"    0"
2016-09-03T05:11:03.910Z,"    0"
2016-09-03T05:16:00.428Z,"    0"
2016-09-03T05:20:56.943Z,"    5"
2016-09-03T05:25:53.622Z,"    5"
2016-09-03T05:30:50.097Z,"    5"
2016-09-03T05:35:48.186Z,"   10"
2016-09-03T05:40:44.383Z,"   10"
2016-09-03T05:45:41.136Z,"   10"
2016-09-03T05:50:40.427Z,"   10"
2016-09-03T05:55:36.195Z,"   10"
2016-09-03T06:00:33.180Z,"   20"
2016-09-03T06:05:30.155Z,"   15"
2016-09-03T06:10:26.775Z,"   10"
2016-09-03T06:15:23.440Z,"    5"
2016-09-03T06:20:20.047Z,"   10"
2016-09-03T06:25:16.738Z,"    5"
2016-09-03T06:30:13.514Z,"   10"
2016-09-03T06:35:10.117Z,"   20"
2016-09-03T06:40:07.183Z,"   30"
2016-09-03T06:45:04.289Z,"   25"
2016-09-03T06:50:00.902Z,"   30"
2016-09-03T06:54:57.693Z,"   30"
2016-09-03T06:59:54.932Z,"   35"
2016-09-03T07:04:51.472Z,"   30"
2016-09-03T07:09:47.965Z,"   30"
2016-09-03T07:14:44.536Z,"   25"
2016-09-03T07:19:41.313Z,"   35"
2016-09-03T07:24:39.524Z,"   35"
2016-09-03T07:29:36.371Z,"   40"
2016-09-03T07:34:33.306Z,"   40"
2016-09-03T07:39:30.213Z,"   45"
2016-09-03T07:44:27.191Z,"   60"
2016-09-03T07:49:24.145Z,"   80"
2016-09-03T07:54:21.261Z,"  230"
2016-09-03T07:59:19.600Z,"  335"
2016-09-03T08:04:16.255Z,"  405"
2016-09-03T08:09:13.193Z,"  375"
2016-09-03T08:14:13.117Z,"  155"
2016-09-03T08:19:09.180Z,"   45"
2016-09-03T08:24:05.792Z,"   65"
2016-09-03T08:29:02.271Z,"   45"
2016-09-03T08:33:58.998Z,"   40"
2016-09-03T08:38:55.686Z,"   60"
2016-09-03T08:43:52.585Z,"   45"
2016-09-03T08:48:49.088Z,"   20"
2016-09-03T08:53:45.625Z,"   20"
2016-09-03T08:58:42.354Z,"   20"
2016-09-03T09:03:38.908Z,"   15"
2016-09-03T09:08:35.377Z,"   15"
2016-09-03T09:13:31.929Z,"   25"
2016-09-03T09:18:28.407Z,"   25"
2016-09-03T09:23:24.926Z,"   20"
2016-09-03T09:28:21.953Z,"   10"
2016-09-03T09:33:18.628Z,"   10"
2016-09-03T09:38:15.202Z,"   15"
2016-09-03T09:43:12.699Z,"   15"
2016-09-03T09:48:09.477Z,"   25"
2016-09-03T09:53:06.208Z,"   25"
2016-09-03T09:58:02.873Z,"   15"
2016-09-03T10:03:02.378Z,"   20"
2016-09-03T10:07:58.470Z,"   20"
2016-09-03T10:12:55.044Z,"   30"
2016-09-03T10:17:51.711Z,"   25"
2016-09-03T10:22:48.486Z,"   25"
2016-09-03T10:27:45.136Z,"   40"
2016-09-03T10:32:41.918Z,"   30"
2016-09-03T10:37:38.970Z,"   45"
2016-09-03T10:42:35.837Z,"   40"
2016-09-03T10:47:32.443Z,"   35"
2016-09-03T10:52:31.594Z,"   20"
2016-09-03T10:57:27.668Z,"   35"
2016-09-03T11:02:24.440Z,"   40"
2016-09-03T11:07:21.218Z,"   35"
2016-09-03T11:12:20.249Z,"   25"
2016-09-03T11:17:16.329Z,"   25"
2016-09-03T11:22:13.033Z,"   25"
2016-09-03T11:27:09.988Z,"   35"
2016-09-03T11:32:08.351Z,"   30"
2016-09-03T11:37:04.698Z,"   25"
2016-09-03T11:42:01.382Z,"   40"
2016-09-03T11:46:58.102Z,"   30"
2016-09-03T11:51:54.782Z,"   30"
2016-09-03T11:56:51.607Z,"   30"
2016-09-03T12:01:48.360Z,"   30"
2016-09-03T12:06:45.061Z,"   30"
2016-09-03T12:11:41.810Z,"   30"
2016-09-03T12:16:38.648Z,"   30"
2016-09-03T12:21:36.900Z,"   30"
2016-09-03T12:26:33.382Z,"   30"
2016-09-03T12:31:30.650Z,"   20"
2016-09-03T12:36:27.160Z,"   30"
2016-09-03T12:41:25.454Z,"   20"
2016-09-03T12:46:21.679Z,"   20"
2016-09-03T12:51:18.272Z,"   20"
2016-09-03T12:56:14.876Z,"   20"
2016-09-03T13:01:11.606Z,"   20"
2016-09-03T13:06:08.146Z,"   15"
2016-09-03T13:11:05.138Z,"   20"
2016-09-03T13:16:01.797Z,"   20"
2016-09-03T13:20:58.408Z,"   15"
2016-09-03T13:25:56.135Z,"   25"
2016-09-03T13:30:52.661Z,"   25"
2016-09-03T13:35:49.331Z,"   15"
2016-09-03T13:40:46.494Z,"   20"
2016-09-03T13:45:43.151Z,"   15"
2016-09-03T13:50:39.801Z,"   15"
2016-09-03T13:55:36.891Z,"   25"
2016-09-03T14:00:33.470Z,"   25"
2016-09-03T14:05:30.162Z,"   25"
2016-09-03T14:10:26.725Z,"   20"
2016-09-03T14:15:23.524Z,"   20"
2016-09-03T14:20:20.175Z,"   30"
2016-09-03T14:25:17.368Z,"   20"
2016-09-03T14:30:16.446Z,"   15"
2016-09-03T14:35:12.625Z,"   20"
2016-09-03T14:40:09.665Z,"   20"
2016-09-03T14:45:06.257Z,"   20"
2016-09-03T14:50:02.907Z,"   20"
2016-09-03T14:54:59.585Z,"   15"
2016-09-03T14:59:57.218Z,"   15"
2016-09-03T15:04:54.145Z,"   20"
2016-09-03T15:09:50.673Z,"   10"
2016-09-03T15:14:47.272Z,"   10"
2016-09-03T15:19:43.918Z,"   10"
2016-09-03T15:24:40.599Z,"   10"
2016-09-03T15:29:37.502Z,"   10"
2016-09-03T15:34:34.264Z,"   15"
2016-09-03T15:39:31.006Z,"   15"
2016-09-03T15:44:27.703Z,"   10"
2016-09-03T15:49:25.576Z,"   10"
2016-09-03T15:54:22.071Z,"   15"
2016-09-03T15:59:18.822Z,"   15"
2016-09-03T16:04:15.429Z,"   10"
2016-09-03T16:09:11.853Z,"   15"
2016-09-03T16:14:08.702Z,"   10"
2016-09-03T16:19:05.844Z,"    5"
2016-09-03T16:24:02.505Z,"    5"
2016-09-03T16:28:58.961Z,"   10"
2016-09-03T16:33:55.808Z,"   10"
2016-09-03T16:38:53.061Z,"   10"
2016-09-03T16:43:49.657Z,"   10"
2016-09-03T16:48:46.165Z,"   15"
2016-09-03T16:53:42.683Z,"   15"
2016-09-03T16:58:39.473Z,"   10"
2016-09-03T17:03:36.604Z,"    5"
2016-09-03T17:08:35.894Z,"    5"
2016-09-03T17:13:31.997Z,"    5"
2016-09-03T17:18:28.653Z,"    5"
2016-09-03T17:23:24.954Z,"    0"
2016-09-03T17:33:21.699Z,"    0"
2016-09-03T17:38:18.324Z,"    0"
2016-09-03T17:43:15.151Z,"    0"
2016-09-03T17:48:13.227Z,"    0"
2016-09-03T17:53:09.570Z,"    0"
2016-09-03T17:58:06.292Z,"    0"
2016-09-03T18:03:03.065Z,"    0"
2016-09-03T18:07:59.827Z,"    0"
2016-09-03T18:12:56.417Z,"    0"
2016-09-03T18:17:53.490Z,"    0"
2016-09-03T18:22:50.097Z,"    0"
2016-09-03T18:27:47.035Z,"    0"
2016-09-03T18:32:43.578Z,"    0"
2016-09-03T18:37:40.489Z,"    0"
2016-09-03T18:42:36.897Z,"    0"
2016-09-03T18:47:33.471Z,"    0"
2016-09-03T18:52:29.974Z,"    0"
2016-09-03T18:57:26.547Z,"    0"
2016-09-03T19:02:23.113Z,"    0"
2016-09-03T19:07:19.746Z,"    0"
2016-09-03T19:12:16.366Z,"    0"
2016-09-03T19:17:14.319Z,"    0"
2016-09-03T19:22:10.651Z,"    0"
2016-09-03T19:27:07.437Z,"    0"
2016-09-03T19:32:05.265Z,"    0"
2016-09-03T19:37:01.565Z,"    0"
2016-09-03T19:41:58.187Z,"    0"
2016-09-03T19:46:55.196Z,"    0"
2016-09-03T19:51:52.079Z,"    0"
2016-09-03T19:56:49.013Z,"    0"
2016-09-03T20:01:45.727Z,"    0"
2016-09-03T20:06:42.392Z,"    0"
2016-09-03T20:11:40.437Z,"    0"
2016-09-03T20:16:36.772Z,"    0"
2016-09-03T20:21:33.886Z,"    0"
2016-09-03T20:26:30.935Z,"    0"
2016-09-03T20:31:27.513Z,"    0"
2016-09-03T20:36:24.097Z,"    0"
2016-09-03T20:41:20.555Z,"    0"
2016-09-03T20:46:17.172Z,"    0"
2016-09-03T20:51:14.213Z,"    0"
2016-09-03T20:56:10.838Z,"    0"
2016-09-03T21:01:07.562Z,"    0"
2016-09-03T21:06:04.117Z,"    0"
2016-09-03T21:11:01.113Z,"    0"
2016-09-03T21:15:57.706Z,"    0"
2016-09-03T21:20:54.287Z,"    0"
2016-09-03T21:25:51.248Z,"    0"
2016-09-03T21:30:47.949Z,"    0"
2016-09-03T21:35:44.533Z,"    0"
2016-09-03T21:40:44.023Z,"    0"
2016-09-03T21:45:40.087Z,"    0"
2016-09-03T21:50:36.759Z,"    0"
2016-09-03T21:55:33.424Z,"    0"
2016-09-03T22:00:30.222Z,"    0"
2016-09-03T22:05:27.286Z,"    0"
2016-09-03T22:10:23.861Z,"    0"
2016-09-03T22:15:20.438Z,"    0"
2016-09-03T22:20:16.890Z,"    0"
2016-09-03T22:25:13.610Z,"    0"
2016-09-03T22:30:10.368Z,"    0"
2016-09-03T22:35:07.351Z,"    0"
2016-09-03T22:40:04.129Z,"    0"
2016-09-03T22:45:00.743Z,"    0"
2016-09-03T22:49:58.868Z,"    0"
2016-09-03T22:54:55.207Z,"    0"
2016-09-03T22:59:52.020Z,"    0"
2016-09-03T23:04:48.777Z,"    0"
2016-09-03T23:09:45.285Z,"    0"
2016-09-03T23:14:41.836Z,"    0"
2016-09-03T23:19:38.506Z,"    0"
2016-09-03T23:24:35.145Z,"    0"
2016-09-03T23:29:31.619Z,"    0"
2016-09-03T23:34:28.298Z,"    0"
2016-09-03T23:39:25.194Z,"    0"
2016-09-03T23:44:21.625Z,"    0"
2016-09-03T23:49:18.196Z,"    0"
2016-09-03T23:54:14.834Z,"    0"
2016-09-03T23:59:11.427Z,"    0"
